In Rescue
 
Open Full Screen Window  High Contrast Mode
Wind Gusting 00 knots
07
April 20, 2024 9:08 AM CDT
Weather Information
Wind Direction
  300 °
Wind Speed
  07 kt (8 mph)
Wind Gust
  00 kt (0 mph)
Altimeter
30.27 in
Visibility
10 SM
Temperature
00° C
32° F
Dewpoint
-06° C
21° F
Humidity
64%
Sky Condition
Overcast @ 3,000 ft
MVFR

METAR KJMR 201408Z AUTO 30007KT 10SM OVC030 00/M06 A3027 RMK AO2

FAA Disclaimer: The data displayed is for advisory purposes only and is not to be used for flight planning or operations.